sensor_id;sensor_type;location;lat;lon;timestamp;noise_LAeq;noise_LA_min;noise_LA_max;noise_LA01;noise_LA95
43787;Laerm;29409;49.306;8.500;2023-03-21T00:00:01;38.36;34.31;40.98;;
43787;Laerm;29409;49.306;8.500;2023-03-21T00:01:02;38.40;34.31;40.62;;
43787;Laerm;29409;49.306;8.500;2023-03-21T00:02:05;38.21;34.31;40.89;;
43787;Laerm;29409;49.306;8.500;2023-03-21T00:03:06;38.34;33.44;41.06;;
43787;Laerm;29409;49.306;8.500;2023-03-21T00:04:06;38.44;32.93;40.80;;
43787;Laerm;29409;49.306;8.500;2023-03-21T00:05:07;38.87;34.69;43.44;;
43787;Laerm;29409;49.306;8.500;2023-03-21T00:06:08;38.69;34.69;41.22;;
43787;Laerm;29409;49.306;8.500;2023-03-21T00:07:10;38.91;34.69;42.35;;
43787;Laerm;29409;49.306;8.500;2023-03-21T00:08:10;38.89;34.31;41.30;;
43787;Laerm;29409;49.306;8.500;2023-03-21T00:09:10;38.45;34.31;40.89;;
43787;Laerm;29409;49.306;8.500;2023-03-21T00:10:11;38.65;35.04;41.22;;
43787;Laerm;29409;49.306;8.500;2023-03-21T00:11:11;38.53;35.04;41.22;;
43787;Laerm;29409;49.306;8.500;2023-03-21T00:12:12;38.96;35.66;41.61;;
43787;Laerm;29409;49.306;8.500;2023-03-21T00:13:13;38.78;33.90;41.14;;
43787;Laerm;29409;49.306;8.500;2023-03-21T00:14:15;40.38;35.36;45.69;;
43787;Laerm;29409;49.306;8.500;2023-03-21T00:15:18;38.60;34.69;41.14;;
43787;Laerm;29409;49.306;8.500;2023-03-21T00:16:19;38.40;34.69;40.88;;
43787;Laerm;29409;49.306;8.500;2023-03-21T00:17:20;38.47;35.04;40.89;;
43787;Laerm;29409;49.306;8.500;2023-03-21T00:18:22;38.29;34.31;41.46;;
43787;Laerm;29409;49.306;8.500;2023-03-21T00:19:23;38.33;32.93;40.98;;
43787;Laerm;29409;49.306;8.500;2023-03-21T00:20:25;38.44;34.69;41.89;;
43787;Laerm;29409;49.306;8.500;2023-03-21T00:21:26;39.08;34.69;42.65;;
43787;Laerm;29409;49.306;8.500;2023-03-21T00:22:35;38.95;34.69;45.17;;
43787;Laerm;29409;49.306;8.500;2023-03-21T00:23:35;38.89;35.04;41.46;;
43787;Laerm;29409;49.306;8.500;2023-03-21T00:24:36;38.60;33.44;40.89;;
43787;Laerm;29409;49.306;8.500;2023-03-21T00:25:36;38.63;34.69;41.22;;
43787;Laerm;29409;49.306;8.500;2023-03-21T00:26:36;38.56;34.31;41.53;;
43787;Laerm;29409;49.306;8.500;2023-03-21T00:27:37;38.58;34.31;43.14;;
43787;Laerm;29409;49.306;8.500;2023-03-21T00:28:38;38.60;34.31;42.88;;
43787;Laerm;29409;49.306;8.500;2023-03-21T00:29:39;38.60;34.69;41.82;;
43787;Laerm;29409;49.306;8.500;2023-03-21T00:30:40;38.64;33.90;42.82;;
43787;Laerm;29409;49.306;8.500;2023-03-21T00:31:40;38.77;34.69;41.14;;
43787;Laerm;29409;49.306;8.500;2023-03-21T00:32:40;38.55;33.90;40.96;;
43787;Laerm;29409;49.306;8.500;2023-03-21T00:33:41;38.57;33.55;41.14;;
43787;Laerm;29409;49.306;8.500;2023-03-21T00:34:42;38.39;33.90;40.80;;
43787;Laerm;29409;49.306;8.500;2023-03-21T00:35:42;40.43;35.36;47.24;;
43787;Laerm;29409;49.306;8.500;2023-03-21T00:36:43;40.04;34.31;48.70;;
43787;Laerm;29409;49.306;8.500;2023-03-21T00:37:44;38.66;33.90;42.41;;
43787;Laerm;29409;49.306;8.500;2023-03-21T00:38:44;38.61;33.44;41.14;;
43787;Laerm;29409;49.306;8.500;2023-03-21T00:39:46;38.71;34.31;41.46;;
43787;Laerm;29409;49.306;8.500;2023-03-21T00:40:48;39.16;35.66;41.68;;
43787;Laerm;29409;49.306;8.500;2023-03-21T00:41:48;39.04;35.66;42.41;;
43787;Laerm;29409;49.306;8.500;2023-03-21T00:42:49;38.68;35.04;41.06;;
43787;Laerm;29409;49.306;8.500;2023-03-21T00:43:49;39.87;34.31;56.76;;
43787;Laerm;29409;49.306;8.500;2023-03-21T00:44:50;38.90;35.04;41.46;;
43787;Laerm;29409;49.306;8.500;2023-03-21T00:45:51;39.02;33.44;47.24;;
43787;Laerm;29409;49.306;8.500;2023-03-21T00:46:51;38.83;34.31;41.96;;
43787;Laerm;29409;49.306;8.500;2023-03-21T00:47:51;38.75;35.36;40.98;;
43787;Laerm;29409;49.306;8.500;2023-03-21T00:48:52;38.69;33.90;41.82;;
43787;Laerm;29409;49.306;8.500;2023-03-21T00:49:52;38.97;35.04;42.53;;
43787;Laerm;29409;49.306;8.500;2023-03-21T00:50:53;38.86;35.04;41.30;;
43787;Laerm;29409;49.306;8.500;2023-03-21T00:51:54;38.63;35.04;41.68;;
43787;Laerm;29409;49.306;8.500;2023-03-21T00:52:54;38.52;34.69;41.14;;
43787;Laerm;29409;49.306;8.500;2023-03-21T00:53:55;38.64;35.04;43.39;;
43787;Laerm;29409;49.306;8.500;2023-03-21T00:54:56;38.43;34.69;40.98;;
43787;Laerm;29409;49.306;8.500;2023-03-21T00:55:56;38.65;34.69;42.71;;
43787;Laerm;29409;49.306;8.500;2023-03-21T00:56:56;38.51;35.31;41.68;;
43787;Laerm;29409;49.306;8.500;2023-03-21T00:57:57;38.53;34.31;42.47;;
43787;Laerm;29409;49.306;8.500;2023-03-21T00:58:57;40.15;35.36;45.48;;
43787;Laerm;29409;49.306;8.500;2023-03-21T00:59:58;39.30;34.31;42.53;;
43787;Laerm;29409;49.306;8.500;2023-03-21T01:00:58;38.82;34.31;41.06;;
43787;Laerm;29409;49.306;8.500;2023-03-21T01:02:01;38.75;35.36;41.46;;
43787;Laerm;29409;49.306;8.500;2023-03-21T01:03:07;38.75;35.04;41.38;;
43787;Laerm;29409;49.306;8.500;2023-03-21T01:04:08;38.86;34.69;41.89;;
43787;Laerm;29409;49.306;8.500;2023-03-21T01:05:13;39.11;35.66;42.09;;
43787;Laerm;29409;49.306;8.500;2023-03-21T01:06:35;38.84;35.01;41.22;;
43787;Laerm;29409;49.306;8.500;2023-03-21T01:07:38;38.48;33.90;41.89;;
43787;Laerm;29409;49.306;8.500;2023-03-21T01:08:39;38.47;34.69;41.46;;
43787;Laerm;29409;49.306;8.500;2023-03-21T01:09:40;38.67;34.69;40.89;;
43787;Laerm;29409;49.306;8.500;2023-03-21T01:10:41;38.47;35.04;41.22;;
43787;Laerm;29409;49.306;8.500;2023-03-21T01:11:42;38.97;34.34;45.07;;
43787;Laerm;29409;49.306;8.500;2023-03-21T01:12:42;38.53;34.69;40.80;;
43787;Laerm;29409;49.306;8.500;2023-03-21T01:13:42;38.76;34.31;41.38;;
43787;Laerm;29409;49.306;8.500;2023-03-21T01:14:43;39.28;35.04;42.09;;
43787;Laerm;29409;49.306;8.500;2023-03-21T01:15:45;39.39;35.66;41.89;;
43787;Laerm;29409;49.306;8.500;2023-03-21T01:16:45;39.78;35.94;42.82;;
43787;Laerm;29409;49.306;8.500;2023-03-21T01:17:46;39.19;35.66;41.75;;
43787;Laerm;29409;49.306;8.500;2023-03-21T01:18:46;39.11;34.69;41.82;;
43787;Laerm;29409;49.306;8.500;2023-03-21T01:19:46;39.03;35.94;42.59;;
43787;Laerm;29409;49.306;8.500;2023-03-21T01:20:47;39.09;35.36;42.03;;
43787;Laerm;29409;49.306;8.500;2023-03-21T01:21:47;38.70;34.69;42.03;;
43787;Laerm;29409;49.306;8.500;2023-03-21T01:22:48;38.80;35.36;42.59;;
43787;Laerm;29409;49.306;8.500;2023-03-21T01:23:48;38.66;33.55;41.38;;
43787;Laerm;29409;49.306;8.500;2023-03-21T01:24:50;38.94;35.04;45.66;;
43787;Laerm;29409;49.306;8.500;2023-03-21T01:25:53;38.72;35.04;41.22;;
43787;Laerm;29409;49.306;8.500;2023-03-21T01:26:55;39.50;36.20;45.36;;
43787;Laerm;29409;49.306;8.500;2023-03-21T01:27:55;39.73;36.69;42.03;;
43787;Laerm;29409;49.306;8.500;2023-03-21T01:28:55;39.39;35.66;42.41;;
43787;Laerm;29409;49.306;8.500;2023-03-21T01:29:56;39.32;35.94;42.53;;
43787;Laerm;29409;49.306;8.500;2023-03-21T01:30:56;39.16;35.36;43.04;;
43787;Laerm;29409;49.306;8.500;2023-03-21T01:31:57;38.52;35.66;41.22;;
43787;Laerm;29409;49.306;8.500;2023-03-21T01:32:57;38.75;32.93;41.53;;
43787;Laerm;29409;49.306;8.500;2023-03-21T01:33:57;38.77;35.04;42.47;;
43787;Laerm;29409;49.306;8.500;2023-03-21T01:34:59;38.65;35.04;42.35;;
43787;Laerm;29409;49.306;8.500;2023-03-21T01:35:59;39.40;35.94;44.54;;
43787;Laerm;29409;49.306;8.500;2023-03-21T01:37:00;38.91;35.36;41.75;;
43787;Laerm;29409;49.306;8.500;2023-03-21T01:38:00;39.05;35.36;41.68;;
43787;Laerm;29409;49.306;8.500;2023-03-21T01:39:00;38.83;35.04;42.03;;
43787;Laerm;29409;49.306;8.500;2023-03-21T01:40:02;39.05;34.69;42.16;;
43787;Laerm;29409;49.306;8.500;2023-03-21T01:41:04;38.94;35.36;42.82;;
43787;Laerm;29409;49.306;8.500;2023-03-21T01:42:05;38.77;35.66;41.06;;
43787;Laerm;29409;49.306;8.500;2023-03-21T01:43:10;38.80;34.69;41.06;;
43787;Laerm;29409;49.306;8.500;2023-03-21T01:44:17;38.72;35.36;41.68;;
43787;Laerm;29409;49.306;8.500;2023-03-21T01:46:38;39.27;35.04;41.53;;
43787;Laerm;29409;49.306;8.500;2023-03-21T01:47:38;40.16;35.59;58.57;;
43787;Laerm;29409;49.306;8.500;2023-03-21T01:48:39;39.29;35.04;56.36;;
43787;Laerm;29409;49.306;8.500;2023-03-21T01:49:41;38.82;35.04;52.00;;
43787;Laerm;29409;49.306;8.500;2023-03-21T01:50:44;38.70;34.31;42.29;;
43787;Laerm;29409;49.306;8.500;2023-03-21T01:51:56;38.54;34.31;41.61;;
43787;Laerm;29409;49.306;8.500;2023-03-21T01:52:58;38.40;34.31;41.61;;
43787;Laerm;29409;49.306;8.500;2023-03-21T01:53:58;38.63;35.04;41.06;;
43787;Laerm;29409;49.306;8.500;2023-03-21T01:54:59;38.63;34.31;41.46;;
43787;Laerm;29409;49.306;8.500;2023-03-21T01:57:29;38.42;34.31;41.61;;
43787;Laerm;29409;49.306;8.500;2023-03-21T01:58:32;38.92;34.69;43.34;;
43787;Laerm;29409;49.306;8.500;2023-03-21T01:59:38;38.79;35.04;41.53;;
43787;Laerm;29409;49.306;8.500;2023-03-21T02:00:40;38.51;33.44;40.98;;
43787;Laerm;29409;49.306;8.500;2023-03-21T02:01:41;38.67;34.69;41.89;;
43787;Laerm;29409;49.306;8.500;2023-03-21T02:02:44;38.76;34.31;41.53;;
43787;Laerm;29409;49.306;8.500;2023-03-21T02:03:52;38.62;34.31;42.93;;
43787;Laerm;29409;49.306;8.500;2023-03-21T02:04:52;38.42;32.35;41.22;;
43787;Laerm;29409;49.306;8.500;2023-03-21T02:06:02;38.34;29.92;40.98;;
43787;Laerm;29409;49.306;8.500;2023-03-21T02:07:06;38.74;34.31;42.09;;
43787;Laerm;29409;49.306;8.500;2023-03-21T02:08:09;39.44;34.69;42.35;;
43787;Laerm;29409;49.306;8.500;2023-03-21T02:09:11;38.98;33.90;43.72;;
43787;Laerm;29409;49.306;8.500;2023-03-21T02:10:13;38.66;32.93;40.98;;
43787;Laerm;29409;49.306;8.500;2023-03-21T02:11:14;38.40;34.31;40.80;;
43787;Laerm;29409;49.306;8.500;2023-03-21T02:12:15;38.21;34.69;40.71;;
43787;Laerm;29409;49.306;8.500;2023-03-21T02:13:17;38.24;34.69;41.68;;
43787;Laerm;29409;49.306;8.500;2023-03-21T02:14:18;38.18;33.09;40.53;;
43787;Laerm;29409;49.306;8.500;2023-03-21T02:15:19;38.23;33.44;41.22;;
43787;Laerm;29409;49.306;8.500;2023-03-21T02:24:44;38.19;33.90;41.14;;
43787;Laerm;29409;49.306;8.500;2023-03-21T02:28:10;38.61;34.31;43.14;;
43787;Laerm;29409;49.306;8.500;2023-03-21T02:30:26;38.64;35.04;41.14;;
43787;Laerm;29409;49.306;8.500;2023-03-21T02:35:17;38.40;34.31;40.80;;
43787;Laerm;29409;49.306;8.500;2023-03-21T02:38:26;38.50;34.69;41.53;;
43787;Laerm;29409;49.306;8.500;2023-03-21T02:40:33;38.68;35.04;45.17;;
43787;Laerm;29409;49.306;8.500;2023-03-21T02:41:53;42.60;33.90;57.05;;
43787;Laerm;29409;49.306;8.500;2023-03-21T02:44:06;38.49;34.69;40.89;;
43787;Laerm;29409;49.306;8.500;2023-03-21T02:45:18;38.51;33.90;43.09;;
43787;Laerm;29409;49.306;8.500;2023-03-21T02:46:37;38.93;35.31;41.22;;
43787;Laerm;29409;49.306;8.500;2023-03-21T02:49:05;38.97;35.94;41.06;;
43787;Laerm;29409;49.306;8.500;2023-03-21T02:50:11;38.93;34.69;42.47;;
43787;Laerm;29409;49.306;8.500;2023-03-21T02:51:13;39.38;34.69;44.90;;
43787;Laerm;29409;49.306;8.500;2023-03-21T02:52:19;39.10;34.69;41.38;;
43787;Laerm;29409;49.306;8.500;2023-03-21T02:53:22;38.93;35.04;41.46;;
43787;Laerm;29409;49.306;8.500;2023-03-21T02:54:25;38.69;35.66;40.89;;
43787;Laerm;29409;49.306;8.500;2023-03-21T02:55:27;38.64;35.04;41.06;;
43787;Laerm;29409;49.306;8.500;2023-03-21T02:56:30;38.53;35.36;42.29;;
43787;Laerm;29409;49.306;8.500;2023-03-21T02:57:32;38.47;33.90;41.14;;
43787;Laerm;29409;49.306;8.500;2023-03-21T02:58:33;38.71;35.04;41.75;;
43787;Laerm;29409;49.306;8.500;2023-03-21T02:59:34;39.59;35.04;46.69;;
43787;Laerm;29409;49.306;8.500;2023-03-21T03:00:36;38.76;34.69;40.89;;
43787;Laerm;29409;49.306;8.500;2023-03-21T03:01:37;38.49;34.69;40.79;;
43787;Laerm;29409;49.306;8.500;2023-03-21T03:02:37;38.43;34.69;40.98;;
43787;Laerm;29409;49.306;8.500;2023-03-21T03:03:39;38.59;34.69;40.62;;
43787;Laerm;29409;49.306;8.500;2023-03-21T03:04:40;38.75;35.04;41.61;;
43787;Laerm;29409;49.306;8.500;2023-03-21T03:05:44;39.37;34.69;43.63;;
43787;Laerm;29409;49.306;8.500;2023-03-21T03:11:39;39.85;36.20;44.19;;
43787;Laerm;29409;49.306;8.500;2023-03-21T03:13:58;39.23;35.66;42.03;;
43787;Laerm;29409;49.306;8.500;2023-03-21T03:16:08;39.00;34.31;41.89;;
43787;Laerm;29409;49.306;8.500;2023-03-21T03:23:11;39.03;35.66;41.82;;
43787;Laerm;29409;49.306;8.500;2023-03-21T03:24:32;39.18;35.66;42.29;;
43787;Laerm;29409;49.306;8.500;2023-03-21T03:25:40;39.20;35.66;41.68;;
43787;Laerm;29409;49.306;8.500;2023-03-21T03:27:45;39.34;35.94;41.96;;
43787;Laerm;29409;49.306;8.500;2023-03-21T03:28:48;39.46;34.69;42.09;;
43787;Laerm;29409;49.306;8.500;2023-03-21T03:29:51;38.88;33.90;41.46;;
43787;Laerm;29409;49.306;8.500;2023-03-21T03:30:52;41.39;34.69;70.37;;
43787;Laerm;29409;49.306;8.500;2023-03-21T03:32:55;38.94;33.90;43.19;;
43787;Laerm;29409;49.306;8.500;2023-03-21T03:33:59;38.61;33.90;41.06;;
43787;Laerm;29409;49.306;8.500;2023-03-21T03:35:00;38.84;35.36;41.30;;
43787;Laerm;29409;49.306;8.500;2023-03-21T03:36:03;38.60;33.44;41.06;;
43787;Laerm;29409;49.306;8.500;2023-03-21T03:37:05;39.04;34.69;41.82;;
43787;Laerm;29409;49.306;8.500;2023-03-21T03:38:06;38.58;35.04;41.22;;
43787;Laerm;29409;49.306;8.500;2023-03-21T03:39:09;38.96;35.04;45.36;;
43787;Laerm;29409;49.306;8.500;2023-03-21T03:41:26;38.74;35.36;40.98;;
43787;Laerm;29409;49.306;8.500;2023-03-21T03:42:46;38.73;35.36;41.14;;
43787;Laerm;29409;49.306;8.500;2023-03-21T03:43:49;38.69;35.36;41.22;;
43787;Laerm;29409;49.306;8.500;2023-03-21T03:44:53;39.60;35.36;45.94;;
43787;Laerm;29409;49.306;8.500;2023-03-21T03:45:55;39.59;35.66;42.65;;
43787;Laerm;29409;49.306;8.500;2023-03-21T03:49:07;39.61;36.20;42.35;;
43787;Laerm;29409;49.306;8.500;2023-03-21T03:51:29;39.79;36.20;42.76;;
43787;Laerm;29409;49.306;8.500;2023-03-21T03:52:36;40.15;35.94;44.27;;
43787;Laerm;29409;49.306;8.500;2023-03-21T03:53:40;40.55;36.45;44.76;;
43787;Laerm;29409;49.306;8.500;2023-03-21T03:54:42;39.51;36.20;42.09;;
43787;Laerm;29409;49.306;8.500;2023-03-21T03:55:43;38.93;35.66;41.38;;
43787;Laerm;29409;49.306;8.500;2023-03-21T03:56:44;39.57;35.94;43.97;;
43787;Laerm;29409;49.306;8.500;2023-03-21T03:57:45;40.01;36.45;47.54;;
43787;Laerm;29409;49.306;8.500;2023-03-21T03:58:46;39.45;35.04;43.24;;
43787;Laerm;29409;49.306;8.500;2023-03-21T03:59:47;39.76;36.69;43.14;;
43787;Laerm;29409;49.306;8.500;2023-03-21T04:00:47;40.34;36.20;44.07;;
43787;Laerm;29409;49.306;8.500;2023-03-21T04:01:48;39.47;35.36;45.80;;
43787;Laerm;29409;49.306;8.500;2023-03-21T04:02:48;39.43;36.20;44.07;;
43787;Laerm;29409;49.306;8.500;2023-03-21T04:03:48;39.06;35.94;41.30;;
43787;Laerm;29409;49.306;8.500;2023-03-21T04:04:49;39.36;36.45;42.00;;
43787;Laerm;29409;49.306;8.500;2023-03-21T04:05:52;39.78;36.20;42.98;;
43787;Laerm;29409;49.306;8.500;2023-03-21T04:06:53;41.10;37.88;44.39;;
43787;Laerm;29409;49.306;8.500;2023-03-21T04:07:53;39.72;36.91;42.22;;
43787;Laerm;29409;49.306;8.500;2023-03-21T04:08:56;40.90;36.45;44.83;;
43787;Laerm;29409;49.306;8.500;2023-03-21T04:09:57;40.42;36.91;46.28;;
43787;Laerm;29409;49.306;8.500;2023-03-21T04:10:57;40.76;37.70;44.43;;
43787;Laerm;29409;49.306;8.500;2023-03-21T04:11:58;40.41;36.45;44.73;;
43787;Laerm;29409;49.306;8.500;2023-03-21T04:12:58;40.84;37.52;44.31;;
43787;Laerm;29409;49.306;8.500;2023-03-21T04:13:58;41.02;37.88;45.48;;
43787;Laerm;29409;49.306;8.500;2023-03-21T04:14:58;40.61;36.20;45.72;;
43787;Laerm;29409;49.306;8.500;2023-03-21T04:15:59;41.03;36.45;50.33;;
43787;Laerm;29409;49.306;8.500;2023-03-21T04:17:00;41.37;37.32;48.79;;
43787;Laerm;29409;49.306;8.500;2023-03-21T04:18:01;40.63;36.91;46.30;;
43787;Laerm;29409;49.306;8.500;2023-03-21T04:19:01;39.43;35.36;45.17;;
43787;Laerm;29409;49.306;8.500;2023-03-21T04:20:01;40.76;36.69;45.17;;
43787;Laerm;29409;49.306;8.500;2023-03-21T04:21:08;39.92;36.45;43.09;;
43787;Laerm;29409;49.306;8.500;2023-03-21T04:22:08;39.71;35.66;43.81;;
43787;Laerm;29409;49.306;8.500;2023-03-21T04:23:08;39.47;35.86;42.47;;
43787;Laerm;29409;49.306;8.500;2023-03-21T04:24:09;39.12;35.04;41.82;;
43787;Laerm;29409;49.306;8.500;2023-03-21T04:25:10;39.13;35.86;43.29;;
43787;Laerm;29409;49.306;8.500;2023-03-21T04:26:12;41.33;37.12;46.97;;
43787;Laerm;29409;49.306;8.500;2023-03-21T04:27:12;40.71;37.12;44.83;;
43787;Laerm;29409;49.306;8.500;2023-03-21T04:28:13;40.43;36.91;48.81;;
43787;Laerm;29409;49.306;8.500;2023-03-21T04:29:13;43.10;36.45;53.91;;
43787;Laerm;29409;49.306;8.500;2023-03-21T04:30:14;40.71;36.69;44.90;;
43787;Laerm;29409;49.306;8.500;2023-03-21T04:31:14;40.39;37.32;43.39;;
43787;Laerm;29409;49.306;8.500;2023-03-21T04:32:16;40.69;37.12;47.59;;
43787;Laerm;29409;49.306;8.500;2023-03-21T04:33:16;41.18;38.21;43.68;;
43787;Laerm;29409;49.306;8.500;2023-03-21T04:34:17;40.68;37.88;43.29;;
43787;Laerm;29409;49.306;8.500;2023-03-21T04:35:23;40.08;35.94;44.31;;
43787;Laerm;29409;49.306;8.500;2023-03-21T04:36:23;40.85;36.91;44.73;;
43787;Laerm;29409;49.306;8.500;2023-03-21T04:37:26;47.58;36.20;60.29;;
43787;Laerm;29409;49.306;8.500;2023-03-21T04:38:27;41.16;37.52;46.57;;
43787;Laerm;29409;49.306;8.500;2023-03-21T04:39:29;40.97;37.12;44.43;;
43787;Laerm;29409;49.306;8.500;2023-03-21T04:40:30;40.52;37.12;43.81;;
43787;Laerm;29409;49.306;8.500;2023-03-21T04:41:30;40.22;36.91;44.83;;
43787;Laerm;29409;49.306;8.500;2023-03-21T04:42:32;40.20;36.45;43.39;;
43787;Laerm;29409;49.306;8.500;2023-03-21T04:43:33;40.86;36.91;45.04;;
43787;Laerm;29409;49.306;8.500;2023-03-21T04:44:33;40.57;37.32;44.47;;
43787;Laerm;29409;49.306;8.500;2023-03-21T04:45:34;40.62;35.94;45.11;;
43787;Laerm;29409;49.306;8.500;2023-03-21T04:46:34;41.53;37.52;49.24;;
43787;Laerm;29409;49.306;8.500;2023-03-21T04:47:35;44.00;37.12;53.10;;
43787;Laerm;29409;49.306;8.500;2023-03-21T04:48:35;42.78;38.95;49.06;;
43787;Laerm;29409;49.306;8.500;2023-03-21T04:49:36;40.65;37.32;43.72;;
43787;Laerm;29409;49.306;8.500;2023-03-21T04:50:37;42.53;37.52;50.29;;
43787;Laerm;29409;49.306;8.500;2023-03-21T04:51:37;42.55;38.95;47.20;;
43787;Laerm;29409;49.306;8.500;2023-03-21T04:52:38;40.80;37.32;45.20;;
43787;Laerm;29409;49.306;8.500;2023-03-21T04:53:38;41.46;36.91;67.93;;
43787;Laerm;29409;49.306;8.500;2023-03-21T04:54:41;40.06;36.91;43.44;;
43787;Laerm;29409;49.306;8.500;2023-03-21T04:55:43;40.59;37.12;46.15;;
43787;Laerm;29409;49.306;8.500;2023-03-21T04:56:44;41.73;37.88;45.89;;
43787;Laerm;29409;49.306;8.500;2023-03-21T04:57:44;48.12;37.88;66.51;;
43787;Laerm;29409;49.306;8.500;2023-03-21T04:58:44;41.16;37.52;51.33;;
43787;Laerm;29409;49.306;8.500;2023-03-21T04:59:44;42.65;38.52;47.24;;
43787;Laerm;29409;49.306;8.500;2023-03-21T05:00:45;40.22;37.32;44.31;;
43787;Laerm;29409;49.306;8.500;2023-03-21T05:01:46;41.94;37.88;47.67;;
43787;Laerm;29409;49.306;8.500;2023-03-21T05:02:48;41.78;38.52;46.91;;
43787;Laerm;29409;49.306;8.500;2023-03-21T05:03:50;42.40;39.08;47.10;;
43787;Laerm;29409;49.306;8.500;2023-03-21T05:04:51;41.05;37.52;46.23;;
43787;Laerm;29409;49.306;8.500;2023-03-21T05:05:51;41.91;37.70;52.52;;
43787;Laerm;29409;49.306;8.500;2023-03-21T05:06:51;40.84;37.88;46.13;;
43787;Laerm;29409;49.306;8.500;2023-03-21T05:07:52;41.98;38.21;57.52;;
43787;Laerm;29409;49.306;8.500;2023-03-21T05:08:52;41.99;37.70;54.34;;
43787;Laerm;29409;49.306;8.500;2023-03-21T05:09:53;41.07;38.21;45.80;;
43787;Laerm;29409;49.306;8.500;2023-03-21T05:10:53;41.06;38.05;46.73;;
43787;Laerm;29409;49.306;8.500;2023-03-21T05:11:55;43.63;38.21;59.98;;
43787;Laerm;29409;49.306;8.500;2023-03-21T05:12:56;44.11;38.81;59.53;;
43787;Laerm;29409;49.306;8.500;2023-03-21T05:13:57;45.30;38.05;60.55;;
43787;Laerm;29409;49.306;8.500;2023-03-21T05:14:59;41.43;37.88;49.08;;
43787;Laerm;29409;49.306;8.500;2023-03-21T05:15:59;41.75;38.21;48.64;;
43787;Laerm;29409;49.306;8.500;2023-03-21T05:17:04;45.04;38.67;59.14;;
43787;Laerm;29409;49.306;8.500;2023-03-21T05:18:05;42.42;38.21;48.52;;
43787;Laerm;29409;49.306;8.500;2023-03-21T05:19:10;41.68;36.91;48.63;;
43787;Laerm;29409;49.306;8.500;2023-03-21T05:20:13;40.84;37.88;42.93;;
43787;Laerm;29409;49.306;8.500;2023-03-21T05:21:16;42.00;38.52;48.10;;
43787;Laerm;29409;49.306;8.500;2023-03-21T05:22:17;41.28;37.88;45.48;;
43787;Laerm;29409;49.306;8.500;2023-03-21T05:23:22;41.52;38.37;50.23;;
43787;Laerm;29409;49.306;8.500;2023-03-21T05:24:22;43.51;38.37;53.98;;
43787;Laerm;29409;49.306;8.500;2023-03-21T05:25:22;42.44;38.81;49.51;;
43787;Laerm;29409;49.306;8.500;2023-03-21T05:26:34;42.33;39.34;48.78;;
43787;Laerm;29409;49.306;8.500;2023-03-21T05:27:34;42.99;39.34;52.07;;
43787;Laerm;29409;49.306;8.500;2023-03-21T05:28:35;43.02;38.67;54.56;;
43787;Laerm;29409;49.306;8.500;2023-03-21T05:29:35;42.19;38.95;45.83;;
43787;Laerm;29409;49.306;8.500;2023-03-21T05:30:36;41.45;38.21;47.02;;
43787;Laerm;29409;49.306;8.500;2023-03-21T05:31:36;44.55;39.34;56.76;;
43787;Laerm;29409;49.306;8.500;2023-03-21T05:32:36;41.32;38.05;45.89;;
43787;Laerm;29409;49.306;8.500;2023-03-21T05:33:37;42.05;38.37;48.39;;
43787;Laerm;29409;49.306;8.500;2023-03-21T05:34:37;41.32;38.21;48.02;;
43787;Laerm;29409;49.306;8.500;2023-03-21T05:35:38;42.65;39.08;50.35;;
43787;Laerm;29409;49.306;8.500;2023-03-21T05:36:38;44.28;40.03;56.14;;
43787;Laerm;29409;49.306;8.500;2023-03-21T05:37:38;42.95;39.81;48.49;;
43787;Laerm;29409;49.306;8.500;2023-03-21T05:38:39;42.11;38.21;47.06;;
43787;Laerm;29409;49.306;8.500;2023-03-21T05:39:44;42.81;39.34;49.84;;
43787;Laerm;29409;49.306;8.500;2023-03-21T05:40:48;42.70;39.46;52.64;;
43787;Laerm;29409;49.306;8.500;2023-03-21T05:41:48;44.99;38.67;58.28;;
43787;Laerm;29409;49.306;8.500;2023-03-21T05:42:48;42.81;38.95;50.71;;
43787;Laerm;29409;49.306;8.500;2023-03-21T05:43:49;43.47;39.46;50.82;;
43787;Laerm;29409;49.306;8.500;2023-03-21T05:44:49;42.04;38.95;48.88;;
43787;Laerm;29409;49.306;8.500;2023-03-21T05:45:50;42.09;39.08;46.66;;
43787;Laerm;29409;49.306;8.500;2023-03-21T05:46:50;42.57;39.34;47.70;;
43787;Laerm;29409;49.306;8.500;2023-03-21T05:47:50;41.67;38.21;49.65;;
43787;Laerm;29409;49.306;8.500;2023-03-21T05:48:51;42.03;37.88;51.10;;
43787;Laerm;29409;49.306;8.500;2023-03-21T05:49:51;43.98;39.34;51.47;;
43787;Laerm;29409;49.306;8.500;2023-03-21T05:50:52;42.53;38.37;54.72;;
43787;Laerm;29409;49.306;8.500;2023-03-21T05:51:52;42.79;38.81;55.15;;
43787;Laerm;29409;49.306;8.500;2023-03-21T05:52:53;41.87;36.69;46.10;;
43787;Laerm;29409;49.306;8.500;2023-03-21T05:53:53;42.27;38.21;52.31;;
43787;Laerm;29409;49.306;8.500;2023-03-21T05:54:54;42.41;39.70;49.62;;
43787;Laerm;29409;49.306;8.500;2023-03-21T05:55:54;41.87;38.37;47.96;;
43787;Laerm;29409;49.306;8.500;2023-03-21T05:56:55;42.93;39.21;52.10;;
43787;Laerm;29409;49.306;8.500;2023-03-21T05:57:55;43.80;40.03;54.00;;
43787;Laerm;29409;49.306;8.500;2023-03-21T05:58:55;43.08;38.37;55.94;;
43787;Laerm;29409;49.306;8.500;2023-03-21T05:59:55;45.19;38.21;55.70;;
43787;Laerm;29409;49.306;8.500;2023-03-21T06:00:56;44.77;38.52;55.61;;
43787;Laerm;29409;49.306;8.500;2023-03-21T06:01:56;45.13;39.58;57.40;;
43787;Laerm;29409;49.306;8.500;2023-03-21T06:02:57;42.98;38.81;52.36;;
43787;Laerm;29409;49.306;8.500;2023-03-21T06:03:58;43.06;39.70;52.83;;
43787;Laerm;29409;49.306;8.500;2023-03-21T06:04:59;41.79;39.08;46.87;;
43787;Laerm;29409;49.306;8.500;2023-03-21T06:05:59;41.87;38.32;45.89;;
43787;Laerm;29409;49.306;8.500;2023-03-21T06:07:00;41.18;38.05;45.42;;
43787;Laerm;29409;49.306;8.500;2023-03-21T06:08:00;43.44;38.37;48.64;;
43787;Laerm;29409;49.306;8.500;2023-03-21T06:09:00;45.29;39.92;55.48;;
43787;Laerm;29409;49.306;8.500;2023-03-21T06:10:01;42.48;39.81;48.66;;
43787;Laerm;29409;49.306;8.500;2023-03-21T06:11:01;44.83;38.81;54.15;;
43787;Laerm;29409;49.306;8.500;2023-03-21T06:12:02;42.57;39.46;46.02;;
43787;Laerm;29409;49.306;8.500;2023-03-21T06:13:02;44.59;38.81;52.39;;
43787;Laerm;29409;49.306;8.500;2023-03-21T06:14:02;42.35;38.67;47.96;;
43787;Laerm;29409;49.306;8.500;2023-03-21T06:15:04;43.44;37.52;50.93;;
43787;Laerm;29409;49.306;8.500;2023-03-21T06:16:05;42.39;38.81;53.79;;
43787;Laerm;29409;49.306;8.500;2023-03-21T06:17:05;41.03;37.52;49.66;;
43787;Laerm;29409;49.306;8.500;2023-03-21T06:18:06;42.37;39.08;55.62;;
43787;Laerm;29409;49.306;8.500;2023-03-21T06:19:06;45.82;38.81;59.07;;
43787;Laerm;29409;49.306;8.500;2023-03-21T06:20:07;46.70;38.81;62.60;;
43787;Laerm;29409;49.306;8.500;2023-03-21T06:21:09;45.90;38.60;59.34;;
43787;Laerm;29409;49.306;8.500;2023-03-21T06:22:09;44.21;38.81;53.67;;
43787;Laerm;29409;49.306;8.500;2023-03-21T06:23:10;44.68;39.58;55.49;;
43787;Laerm;29409;49.306;8.500;2023-03-21T06:24:10;46.14;39.70;57.95;;
43787;Laerm;29409;49.306;8.500;2023-03-21T06:25:10;43.97;39.46;55.27;;
43787;Laerm;29409;49.306;8.500;2023-03-21T06:26:11;45.75;39.81;59.29;;
43787;Laerm;29409;49.306;8.500;2023-03-21T06:27:11;42.86;39.08;56.10;;
43787;Laerm;29409;49.306;8.500;2023-03-21T06:28:11;45.02;40.03;56.00;;
43787;Laerm;29409;49.306;8.500;2023-03-21T06:29:12;42.46;39.58;47.26;;